Terminal Aerodrome Forecast
Issued by NWS

Home | Current Version | Previous Version | Text Only | Print | Product List | Glossary Off
Versions: 1 2 3 4 5 6 7 8 9 10 11 12 13 14 15 16

000
FTUS41 KCLE 240244 AAA
TAFFDY
TAF AMD
KFDY 240244Z 2403/2424 04010KT P6SM SCT008 OVC015
      TEMPO 2410/2414 BKN008
     FM241700 06010KT P6SM SCT015 OVC025
     FM242200 06008KT P6SM BKN035=

USA.gov is the U.S. government's official web portal to all federal, state and local government web resources and services.